Terminal Aerodrome Forecast
Issued by NWS

Home | Current Version | Previous Version | Text Only | Print | Product List | Glossary On
Versions: 1 2 3 4 5 6 7 8 9 10 11 12 13 14 15 16 17 18 19 20 21
460
FTUS45 KABQ 180520
TAFLVS
TAF
KLVS 180520Z 1806/1906 02005KT P6SM SKC
     FM181900 19010KT P6SM FEW250
     FM190200 22008KT P6SM FEW250=

USA.gov is the U.S. government's official web portal to all federal, state and local government web resources and services.